createdAt,value
2018-03-19T00:01:23.901Z,95593.38
2018-03-19T00:03:53.243Z,95590.10
2018-03-19T00:06:19.169Z,95592.38
2018-03-19T00:08:48.384Z,95594.11
2018-03-19T00:11:15.023Z,95591.71
2018-03-19T00:13:41.667Z,95591.40
2018-03-19T00:16:07.553Z,95593.22
2018-03-19T00:18:36.765Z,95596.63
2018-03-19T00:21:02.658Z,95594.27
2018-03-19T00:23:28.567Z,95591.72
2018-03-19T00:25:54.485Z,95600.46
2018-03-19T00:28:20.397Z,95594.78
2018-03-19T00:30:48.244Z,95591.52
2018-03-19T00:33:14.121Z,95594.46
2018-03-19T00:35:42.937Z,95593.95
2018-03-19T00:38:08.848Z,95591.58
2018-03-19T00:40:37.668Z,95584.89
2018-03-19T00:43:03.593Z,95587.22
2018-03-19T00:45:32.168Z,95588.82
2018-03-19T00:47:58.076Z,95587.16
2018-03-19T00:50:28.293Z,95584.33
2018-03-19T00:52:54.221Z,95589.28
2018-03-19T00:55:21.597Z,95588.61
2018-03-19T00:57:47.523Z,95585.90
2018-03-19T01:00:13.421Z,95591.66
2018-03-19T01:02:39.333Z,95587.06
2018-03-19T01:05:05.227Z,95588.64
2018-03-19T01:07:34.787Z,95583.84
2018-03-19T01:10:00.716Z,95578.95
2018-03-19T01:12:28.623Z,95584.16
2018-03-19T01:14:54.530Z,95587.80
2018-03-19T01:17:23.567Z,95584.02
2018-03-19T01:19:49.457Z,95584.91
2018-03-19T01:22:18.799Z,95588.50
2018-03-19T01:24:44.687Z,95580.02
2018-03-19T01:27:11.936Z,95586.72
2018-03-19T01:29:37.815Z,95584.73
2018-03-19T01:32:06.725Z,95583.06
2018-03-19T01:34:32.638Z,95580.39
2018-03-19T01:36:58.527Z,95586.47
2018-03-19T01:39:24.453Z,95576.95
2018-03-19T01:41:50.367Z,95569.89
2018-03-19T01:44:20.091Z,95574.57
2018-03-19T01:46:45.969Z,95572.31
2018-03-19T01:49:13.088Z,95568.41
2018-03-19T01:51:39.022Z,95565.67
2018-03-19T01:54:07.768Z,95569.26
2018-03-19T01:56:33.648Z,95563.66
2018-03-19T01:59:02.563Z,95552.55
2018-03-19T02:01:28.457Z,95561.28
2018-03-19T02:03:57.335Z,95562.44
2018-03-19T02:06:23.226Z,95568.90
2018-03-19T02:08:52.076Z,95556.46
2018-03-19T02:11:18.020Z,95565.41
2018-03-19T02:13:43.903Z,95565.37
2018-03-19T02:16:09.832Z,95564.02
2018-03-19T02:18:35.772Z,95562.70
2018-03-19T02:21:04.833Z,95562.84
2018-03-19T02:23:30.729Z,95558.00
2018-03-19T02:25:59.759Z,95557.73
2018-03-19T02:28:25.661Z,95532.53
2018-03-19T02:30:53.076Z,95558.47
2018-03-19T02:33:18.996Z,95556.28
2018-03-19T02:35:47.849Z,95563.00
2018-03-19T02:38:13.764Z,95557.11
2018-03-19T02:40:44.375Z,95553.74
2018-03-19T02:43:10.245Z,95554.61
2018-03-19T02:45:37.507Z,95555.67
2018-03-19T02:48:03.385Z,95558.83
2018-03-19T02:50:29.298Z,95555.94
2018-03-19T02:52:55.227Z,95564.86
2018-03-19T02:55:21.189Z,95562.11
2018-03-19T02:57:48.894Z,95566.02
2018-03-19T03:00:14.816Z,95561.38
2018-03-19T03:02:43.572Z,95561.21
2018-03-19T03:05:09.488Z,95565.77
2018-03-19T03:07:38.635Z,95569.84
2018-03-19T03:10:04.541Z,95572.66
2018-03-19T03:12:33.867Z,95572.16
2018-03-19T03:14:59.763Z,95578.02
2018-03-19T03:17:29.009Z,95594.31
2018-03-19T03:19:54.914Z,95574.81
2018-03-19T03:22:24.462Z,95576.09
2018-03-19T03:24:50.404Z,95577.11
2018-03-19T03:27:16.353Z,95580.13
2018-03-19T03:29:42.242Z,95569.57
2018-03-19T03:32:08.150Z,95573.70
2018-03-19T03:34:34.100Z,95575.41
2018-03-19T03:37:00.000Z,95574.69
2018-03-19T03:39:28.871Z,95576.61
2018-03-19T03:41:54.810Z,95574.16
2018-03-19T03:44:23.763Z,95574.27
2018-03-19T03:46:49.645Z,95574.48
2018-03-19T03:49:22.485Z,95574.42
2018-03-19T03:51:48.348Z,95582.92
2018-03-19T03:54:14.239Z,95577.00
2018-03-19T03:56:40.122Z,95576.77
2018-03-19T03:59:09.329Z,95574.72
2018-03-19T04:01:35.306Z,95578.00
2018-03-19T04:04:01.257Z,95565.19
2018-03-19T04:06:27.175Z,95574.87
2018-03-19T04:08:53.043Z,95576.91
2018-03-19T04:11:21.353Z,95579.89
2018-03-19T04:13:47.361Z,95573.07
2018-03-19T04:16:14.231Z,95581.55
2018-03-19T04:18:40.120Z,95580.92
2018-03-19T04:21:09.222Z,95575.73
2018-03-19T04:23:35.229Z,95577.89
2018-03-19T04:26:03.740Z,95579.11
2018-03-19T04:28:29.647Z,95573.41
2018-03-19T04:30:58.475Z,95578.17
2018-03-19T04:33:24.367Z,95569.78
2018-03-19T04:35:53.090Z,95572.37
2018-03-19T04:38:19.311Z,95571.40
2018-03-19T04:40:45.242Z,95570.77
2018-03-19T04:43:11.162Z,95572.80
2018-03-19T04:45:37.025Z,95574.03
2018-03-19T04:48:06.384Z,95573.40
2018-03-19T04:50:32.324Z,95574.72
2018-03-19T04:53:00.146Z,95575.63
2018-03-19T04:55:26.066Z,95567.48
2018-03-19T04:57:55.477Z,95570.79
2018-03-19T05:00:21.382Z,95567.98
2018-03-19T05:02:50.701Z,95570.45
2018-03-19T05:05:16.584Z,95581.91
2018-03-19T05:07:43.709Z,95581.98
2018-03-19T05:10:09.597Z,95583.75
2018-03-19T05:12:38.954Z,95577.12
2018-03-19T05:15:04.886Z,95579.98
2018-03-19T05:17:30.776Z,95581.09
2018-03-19T05:19:56.698Z,95590.30
2018-03-19T05:22:22.616Z,95590.20
2018-03-19T05:24:51.664Z,95590.42
2018-03-19T05:27:17.591Z,95595.56
2018-03-19T05:29:46.656Z,95598.44
2018-03-19T05:32:12.571Z,95596.58
2018-03-19T05:34:39.711Z,95595.56
2018-03-19T05:37:05.635Z,95600.05
2018-03-19T05:39:34.878Z,95598.67
2018-03-19T05:42:00.790Z,95594.81
2018-03-19T05:44:30.683Z,95601.96
2018-03-19T05:46:56.561Z,95599.18
2018-03-19T05:49:23.802Z,95606.34
2018-03-19T05:51:49.681Z,95605.29
2018-03-19T05:54:15.622Z,95610.97
2018-03-19T05:56:41.593Z,95610.97
2018-03-19T05:59:07.468Z,95617.00
2018-03-19T06:01:35.950Z,95619.66
2018-03-19T06:04:02.960Z,95616.52
2018-03-19T06:06:30.248Z,95623.98
2018-03-19T06:08:56.173Z,95625.69
2018-03-19T06:11:25.902Z,95621.29
2018-03-19T06:13:51.932Z,95625.58
2018-03-19T06:16:21.072Z,95621.67
2018-03-19T06:18:46.997Z,95625.80
2018-03-19T06:21:16.069Z,95624.33
2018-03-19T06:23:42.015Z,95624.44
2018-03-19T06:26:09.012Z,95628.95
2018-03-19T06:28:34.908Z,95636.44
2018-03-19T06:31:00.825Z,95636.48
2018-03-19T06:33:26.738Z,95640.55
2018-03-19T06:35:52.746Z,95634.45
2018-03-19T06:38:20.569Z,95643.27
2018-03-19T06:40:46.485Z,95640.12
2018-03-19T06:43:15.170Z,95644.51
2018-03-19T06:45:41.083Z,95644.84
2018-03-19T06:48:09.836Z,95646.00
2018-03-19T06:50:35.731Z,95648.63
2018-03-19T06:53:04.738Z,95646.50
2018-03-19T06:55:30.686Z,95649.50
2018-03-19T06:58:00.256Z,95652.83
2018-03-19T07:00:26.143Z,95654.61
2018-03-19T07:02:55.554Z,95660.58
2018-03-19T07:05:21.461Z,95660.67
2018-03-19T07:07:47.373Z,95663.47
2018-03-19T07:10:13.296Z,95667.43
2018-03-19T07:12:39.181Z,95670.59
2018-03-19T07:15:06.125Z,95670.95
2018-03-19T07:17:32.001Z,95667.70
2018-03-19T07:20:01.724Z,95672.34
2018-03-19T07:22:27.626Z,95669.06
2018-03-19T07:24:57.094Z,95667.19
2018-03-19T07:27:22.977Z,95668.86
2018-03-19T07:29:50.073Z,95668.42
2018-03-19T07:32:17.620Z,95667.23
2018-03-19T07:34:45.050Z,95670.56
2018-03-19T07:37:10.948Z,95668.39
2018-03-19T07:39:40.759Z,95672.14
2018-03-19T07:42:06.660Z,95673.33
2018-03-19T07:44:32.639Z,95675.36
2018-03-19T07:46:58.562Z,95676.97
2018-03-19T07:49:24.446Z,95670.41
2018-03-19T07:51:52.033Z,95673.20
2018-03-19T07:54:17.932Z,95673.14
2018-03-19T07:56:47.326Z,95667.88
2018-03-19T07:59:13.208Z,95671.06
2018-03-19T08:01:42.196Z,95669.31
2018-03-19T08:04:08.098Z,95667.84
2018-03-19T08:06:35.818Z,95674.48
2018-03-19T08:09:01.714Z,95669.00
2018-03-19T08:11:30.292Z,95670.03
2018-03-19T08:13:56.189Z,95675.02
2018-03-19T08:16:26.076Z,95674.73
2018-03-19T08:18:51.970Z,95681.91
2018-03-19T08:21:17.884Z,95682.22
2018-03-19T08:23:43.792Z,95679.59
2018-03-19T08:26:09.669Z,95681.92
2018-03-19T08:28:36.585Z,95686.30
2018-03-19T08:31:02.483Z,95685.41
2018-03-19T08:33:31.524Z,95681.98
2018-03-19T08:35:57.467Z,95685.56
2018-03-19T08:38:26.392Z,95681.95
2018-03-19T08:40:52.328Z,95681.97
2018-03-19T08:43:21.007Z,95682.38
2018-03-19T08:45:46.936Z,95683.74
2018-03-19T08:48:15.542Z,95685.53
2018-03-19T08:50:41.441Z,95683.53
2018-03-19T08:53:11.244Z,95677.41
2018-03-19T08:55:37.142Z,95677.17
2018-03-19T08:58:03.047Z,95671.03
2018-03-19T09:00:28.938Z,95682.95
2018-03-19T09:02:54.839Z,95676.70
2018-03-19T09:05:22.449Z,95681.35
2018-03-19T09:07:48.347Z,95684.83
2018-03-19T09:10:16.500Z,95683.17
2018-03-19T09:12:42.414Z,95679.85
2018-03-19T09:15:11.209Z,95684.95
2018-03-19T09:17:37.151Z,95675.75
2018-03-19T09:20:05.942Z,95677.23
2018-03-19T09:22:31.816Z,95680.42
2018-03-19T09:25:00.626Z,95680.92
2018-03-19T09:27:26.561Z,95681.89
2018-03-19T09:29:55.342Z,95681.34
2018-03-19T09:32:21.258Z,95677.45
2018-03-19T09:34:47.176Z,95686.86
2018-03-19T09:37:13.050Z,95688.30
2018-03-19T09:39:38.960Z,95686.96
2018-03-19T09:42:07.004Z,95689.41
2018-03-19T09:44:32.915Z,95690.20
2018-03-19T09:47:01.945Z,95690.89
2018-03-19T09:49:27.859Z,95691.98
2018-03-19T09:51:57.244Z,95694.80
2018-03-19T09:54:23.195Z,95702.53
2018-03-19T09:56:52.454Z,95697.95
2018-03-19T09:59:18.365Z,95701.89
2018-03-19T10:01:46.227Z,95702.58
2018-03-19T10:04:12.137Z,95703.95
2018-03-19T10:06:41.983Z,95706.94
2018-03-19T10:09:07.903Z,95701.70
2018-03-19T10:11:33.781Z,95709.87
2018-03-19T10:13:59.690Z,95709.02
2018-03-19T10:16:25.635Z,95705.90
2018-03-19T10:18:52.666Z,95709.02
2018-03-19T10:21:18.599Z,95709.98
2018-03-19T10:23:48.602Z,95709.09
2018-03-19T10:26:14.523Z,95715.05
2018-03-19T10:28:41.904Z,95710.98
2018-03-19T10:31:07.845Z,95707.83
2018-03-19T10:33:37.259Z,95713.47
2018-03-19T10:36:03.200Z,95709.31
2018-03-19T10:38:36.379Z,95716.75
2018-03-19T10:41:02.217Z,95713.95
2018-03-19T10:43:28.102Z,95713.14
2018-03-19T10:45:54.004Z,95717.66
2018-03-19T10:48:19.948Z,95716.80
2018-03-19T10:50:45.865Z,95716.36
2018-03-19T10:53:11.801Z,95712.44
2018-03-19T10:55:37.730Z,95716.73
2018-03-19T10:58:03.618Z,95721.83
2018-03-19T11:00:33.522Z,95717.63
2018-03-19T11:03:05.439Z,95715.20
2018-03-19T11:05:31.362Z,95710.94
2018-03-19T11:08:03.374Z,95705.80
2018-03-19T11:10:29.279Z,95703.61
2018-03-19T11:12:55.216Z,95704.94
2018-03-19T11:15:21.107Z,95696.53
2018-03-19T11:17:47.005Z,95691.05
2018-03-19T11:20:12.894Z,95699.98
2018-03-19T11:22:38.809Z,95696.61
2018-03-19T11:25:04.702Z,95687.28
2018-03-19T11:27:30.675Z,95688.49
2018-03-19T11:29:56.571Z,95683.71
2018-03-19T11:32:23.288Z,95686.89
2018-03-19T11:34:49.168Z,95690.95
2018-03-19T11:37:17.872Z,95639.28
2018-03-19T11:39:43.772Z,95691.09
2018-03-19T11:42:13.061Z,95690.65
2018-03-19T11:44:38.978Z,95685.80
2018-03-19T11:47:08.516Z,95694.08
2018-03-19T11:49:34.397Z,95693.95
2018-03-19T11:52:03.755Z,95692.26
2018-03-19T11:54:29.642Z,95692.00
2018-03-19T11:56:56.914Z,95692.97
2018-03-19T11:59:22.847Z,95690.38
2018-03-19T12:01:48.709Z,95689.80
2018-03-19T12:04:14.634Z,95687.48
2018-03-19T12:06:40.516Z,95693.38
2018-03-19T12:09:09.513Z,95694.97
2018-03-19T12:11:35.402Z,95700.53
2018-03-19T12:14:03.180Z,95702.28
2018-03-19T12:16:29.110Z,95701.84
2018-03-19T12:18:58.314Z,95703.01
2018-03-19T12:21:24.202Z,95700.70
2018-03-19T12:23:53.144Z,95694.55
2018-03-19T12:26:19.069Z,95690.50
2018-03-19T12:28:48.565Z,95688.40
2018-03-19T12:31:14.473Z,95693.95
2018-03-19T12:33:43.635Z,95700.75
2018-03-19T12:36:09.548Z,95700.77
2018-03-19T12:38:35.460Z,95694.25
2018-03-19T12:41:01.362Z,95691.27
2018-03-19T12:43:27.242Z,95700.23
2018-03-19T12:45:53.551Z,95704.15
2018-03-19T12:48:19.443Z,95697.29
2018-03-19T12:50:48.810Z,95694.41
2018-03-19T12:53:14.698Z,95690.34
2018-03-19T12:55:44.175Z,95697.34
2018-03-19T12:58:10.132Z,95682.14
2018-03-19T13:00:39.381Z,95689.38
2018-03-19T13:03:11.841Z,95689.66
2018-03-19T13:05:37.740Z,95675.36
2018-03-19T13:08:03.635Z,95694.19
2018-03-19T13:10:29.521Z,95696.41
2018-03-19T13:12:55.444Z,95697.14
2018-03-19T13:15:21.373Z,95693.16
2018-03-19T13:17:47.260Z,95691.41
2018-03-19T13:20:13.203Z,95690.19
2018-03-19T13:22:39.088Z,95682.95
2018-03-19T13:25:04.994Z,95684.63
2018-03-19T13:27:34.016Z,95691.92
2018-03-19T13:29:59.939Z,95693.58
2018-03-19T13:32:29.840Z,95694.77
2018-03-19T13:34:55.767Z,95699.80
2018-03-19T13:37:23.013Z,95698.63
2018-03-19T13:39:48.909Z,95699.71
2018-03-19T13:42:17.797Z,95698.48
2018-03-19T13:44:43.746Z,95702.08
2018-03-19T13:47:12.724Z,95708.27
2018-03-19T13:49:38.659Z,95711.56
2018-03-19T13:52:04.617Z,95713.97
2018-03-19T13:54:30.687Z,95720.08
2018-03-19T13:56:56.561Z,95724.50
2018-03-19T13:59:26.249Z,95715.41
2018-03-19T14:01:52.161Z,95707.91
2018-03-19T14:04:18.850Z,95702.36
2018-03-19T14:06:44.797Z,95709.52
2018-03-19T14:09:13.954Z,95704.49
2018-03-19T14:11:39.918Z,95705.61
2018-03-19T14:14:08.775Z,95711.38
2018-03-19T14:16:34.692Z,95710.30
2018-03-19T14:19:03.545Z,95708.98
2018-03-19T14:21:29.526Z,95710.19
2018-03-19T14:23:58.246Z,95714.44
2018-03-19T14:26:24.121Z,95714.66
2018-03-19T14:28:50.945Z,95712.77
2018-03-19T14:31:16.936Z,95713.03
2018-03-19T14:33:44.651Z,95715.34
2018-03-19T14:36:10.965Z,95716.11
2018-03-19T14:38:36.987Z,95715.34
2018-03-19T14:41:04.469Z,95720.89
2018-03-19T14:43:30.435Z,95719.04
2018-03-19T14:45:59.531Z,95721.88
2018-03-19T14:48:25.505Z,95721.59
2018-03-19T14:50:54.721Z,95715.28
2018-03-19T14:53:21.613Z,95716.38
2018-03-19T14:55:49.327Z,95706.81
2018-03-19T14:58:15.330Z,95716.05
2018-03-19T15:00:44.569Z,95717.24
2018-03-19T15:03:10.517Z,95718.73
2018-03-19T15:05:36.481Z,95715.63
2018-03-19T15:08:02.463Z,95713.84
2018-03-19T15:10:28.429Z,95721.45
2018-03-19T15:13:08.535Z,95721.01
2018-03-19T15:15:34.479Z,95727.59
2018-03-19T15:18:00.375Z,95727.27
2018-03-19T15:20:26.271Z,95724.69
2018-03-19T15:22:52.167Z,95730.45
2018-03-19T15:25:18.068Z,95727.31
2018-03-19T15:27:43.961Z,95724.87
2018-03-19T15:30:09.927Z,95726.09
2018-03-19T15:32:35.816Z,95732.72
2018-03-19T15:35:01.713Z,95731.07
2018-03-19T15:37:28.956Z,95734.24
2018-03-19T15:39:54.869Z,95734.14
2018-03-19T15:42:20.791Z,95739.66
2018-03-19T15:44:47.610Z,95733.08
2018-03-19T15:47:13.525Z,95732.09
2018-03-19T15:49:40.767Z,95730.52
2018-03-19T15:52:06.673Z,95736.12
2018-03-19T15:54:36.063Z,95731.85
2018-03-19T15:57:01.997Z,95742.66
2018-03-19T15:59:29.874Z,95742.48
2018-03-19T16:01:55.838Z,95731.05
2018-03-19T16:04:24.569Z,95746.23
2018-03-19T16:06:50.486Z,95755.82
2018-03-19T16:09:20.151Z,95747.27
2018-03-19T16:11:46.058Z,95755.87
2018-03-19T16:14:18.074Z,95753.02
2018-03-19T16:16:44.821Z,95756.73
2018-03-19T16:19:10.720Z,95760.28
2018-03-19T16:21:36.630Z,95764.52
2018-03-19T16:24:02.564Z,95765.45
2018-03-19T16:26:28.456Z,95767.45
2018-03-19T16:28:55.427Z,95769.63
2018-03-19T16:31:21.335Z,95770.02
2018-03-19T16:33:47.251Z,95777.80
2018-03-19T16:36:16.499Z,95769.88
2018-03-19T16:38:42.405Z,95770.48
2018-03-19T16:41:09.642Z,95768.92
2018-03-19T16:43:35.582Z,95778.70
2018-03-19T16:46:04.290Z,95777.13
2018-03-19T16:48:30.180Z,95787.44
2018-03-19T16:50:59.329Z,95780.73
2018-03-19T16:53:25.226Z,95779.03
2018-03-19T16:55:51.377Z,95779.02
2018-03-19T16:58:18.582Z,95783.58
2018-03-19T17:00:44.495Z,95791.84
2018-03-19T17:03:11.220Z,95784.40
2018-03-19T17:05:37.162Z,95792.18
2018-03-19T17:08:06.368Z,95792.59
2018-03-19T17:10:32.415Z,95793.72
2018-03-19T17:13:01.786Z,95802.19
2018-03-19T17:15:27.684Z,95800.72
2018-03-19T17:17:54.899Z,95805.74
2018-03-19T17:20:28.266Z,95812.51
2018-03-19T17:22:54.185Z,95813.74
2018-03-19T17:25:20.107Z,95814.45
2018-03-19T17:27:46.016Z,95811.66
2018-03-19T17:30:11.943Z,95815.31
2018-03-19T17:32:37.860Z,95821.92
2018-03-19T17:35:03.780Z,95822.95
2018-03-19T17:37:29.672Z,95824.83
2018-03-19T17:39:56.408Z,95833.20
2018-03-19T17:42:22.347Z,95832.73
2018-03-19T17:44:50.530Z,95842.08
2018-03-19T17:47:16.430Z,95847.08
2018-03-19T17:49:45.469Z,95835.99
2018-03-19T17:52:11.583Z,95843.22
2018-03-19T17:54:40.912Z,95852.00
2018-03-19T17:57:07.639Z,95848.08
2018-03-19T17:59:35.360Z,95852.94
2018-03-19T18:02:01.409Z,95851.53
2018-03-19T18:04:30.783Z,95857.55
2018-03-19T18:09:46.719Z,95858.88
2018-03-19T18:12:12.640Z,95859.05
2018-03-19T18:14:38.736Z,95866.25
2018-03-19T18:17:16.793Z,95868.52
2018-03-19T18:19:42.803Z,95866.72
2018-03-19T18:22:08.805Z,95876.02
2018-03-19T18:24:34.737Z,95877.90
2018-03-19T18:27:00.648Z,95875.41
2018-03-19T18:29:26.636Z,95876.48
2018-03-19T18:31:52.548Z,95882.34
2018-03-19T18:34:18.443Z,95882.73
2018-03-19T18:36:44.418Z,95890.20
2018-03-19T18:39:10.566Z,95892.53
2018-03-19T18:41:36.509Z,95893.52
2018-03-19T18:44:02.477Z,95890.95
2018-03-19T18:46:28.412Z,95901.30
2018-03-19T18:48:54.452Z,95904.23
2018-03-19T18:51:20.429Z,95902.20
2018-03-19T18:53:46.396Z,95898.91
2018-03-19T18:56:12.376Z,95904.75
2018-03-19T18:58:38.305Z,95914.58
2018-03-19T19:01:04.256Z,95906.80
2018-03-19T19:03:30.169Z,95910.26
2018-03-19T19:05:56.046Z,95906.59
2018-03-19T19:08:21.965Z,95918.38
2018-03-19T19:10:47.880Z,95915.21
2018-03-19T19:13:13.784Z,95918.97
2018-03-19T19:15:39.803Z,95922.17
2018-03-19T19:18:05.706Z,95922.64
2018-03-19T19:20:31.618Z,95925.42
2018-03-19T19:22:57.531Z,95925.84
2018-03-19T19:25:23.539Z,95926.87
2018-03-19T19:27:49.407Z,95921.16
2018-03-19T19:30:15.623Z,95915.81
2018-03-19T19:32:41.486Z,95919.83
2018-03-19T19:35:07.502Z,95921.53
2018-03-19T19:37:33.452Z,95922.85
2018-03-19T19:40:02.923Z,95925.25
2018-03-19T19:42:28.864Z,95923.63
2018-03-19T19:44:56.763Z,95922.81
2018-03-19T19:47:22.712Z,95930.63
2018-03-19T19:49:52.618Z,95924.91
2018-03-19T19:52:18.571Z,95926.91
2018-03-19T19:54:45.539Z,95930.45
2018-03-19T19:57:11.479Z,95932.85
2018-03-19T19:59:37.394Z,95928.02
2018-03-19T20:02:03.408Z,95930.07
2018-03-19T20:04:29.331Z,95935.23
2018-03-19T20:06:58.477Z,95929.85
2018-03-19T20:09:24.718Z,95927.12
2018-03-19T20:11:53.562Z,95928.41
2018-03-19T20:14:19.457Z,95932.70
2018-03-19T20:16:46.661Z,95930.58
2018-03-19T20:19:12.589Z,95927.28
2018-03-19T20:21:42.446Z,95930.27
2018-03-19T20:24:08.320Z,95932.78
2018-03-19T20:26:37.609Z,95932.70
2018-03-19T20:29:03.531Z,95928.74
2018-03-19T20:31:32.551Z,95933.34
2018-03-19T20:33:58.492Z,95930.56
2018-03-19T20:36:24.368Z,95932.75
2018-03-19T20:38:50.294Z,95935.69
2018-03-19T20:41:16.185Z,95935.05
2018-03-19T20:43:42.806Z,95937.92
2018-03-19T20:46:08.724Z,95940.05
2018-03-19T20:48:37.900Z,95945.72
2018-03-19T20:51:03.809Z,95948.24
2018-03-19T20:53:33.684Z,95953.25
2018-03-19T20:55:59.590Z,95951.11
2018-03-19T20:58:27.038Z,95949.31
2018-03-19T21:00:53.050Z,95952.57
2018-03-19T21:03:21.933Z,95948.05
2018-03-19T21:05:47.968Z,95950.60
2018-03-19T21:08:16.932Z,95948.25
2018-03-19T21:10:43.036Z,95948.64
2018-03-19T21:13:08.977Z,95950.70
2018-03-19T21:15:34.954Z,95949.62
2018-03-19T21:18:01.005Z,95948.98
2018-03-19T21:20:28.628Z,95955.91
2018-03-19T21:22:54.574Z,95956.44
2018-03-19T21:25:23.679Z,95953.41
2018-03-19T21:27:49.604Z,95956.70
2018-03-19T21:30:18.857Z,95961.19
2018-03-19T21:32:52.227Z,95960.29
2018-03-19T21:35:18.119Z,95959.83
2018-03-19T21:37:44.033Z,95958.97
2018-03-19T21:40:10.100Z,95961.02
2018-03-19T21:42:36.040Z,95960.25
2018-03-19T21:45:02.202Z,95961.19
2018-03-19T21:47:28.236Z,95956.27
2018-03-19T21:49:54.317Z,95958.28
2018-03-19T21:52:24.406Z,95959.48
2018-03-19T21:54:52.237Z,95959.09
2018-03-19T21:57:18.402Z,95959.91
2018-03-19T21:59:44.398Z,95956.49
2018-03-19T22:02:10.356Z,95958.78
2018-03-19T22:04:36.271Z,95960.62
2018-03-19T22:07:02.708Z,95963.57
2018-03-19T22:09:28.665Z,95960.08
2018-03-19T22:11:57.541Z,95959.85
2018-03-19T22:14:23.446Z,95961.40
2018-03-19T22:16:52.443Z,95968.43
2018-03-19T22:19:18.410Z,95959.38
2018-03-19T22:21:47.852Z,95962.88
2018-03-19T22:24:13.770Z,95960.66
2018-03-19T22:26:39.692Z,95970.99
2018-03-19T22:29:05.564Z,95968.42
2018-03-19T22:31:31.503Z,95973.77
2018-03-19T22:33:59.037Z,95972.78
2018-03-19T22:36:24.959Z,95975.16
2018-03-19T22:38:54.243Z,95978.45
2018-03-19T22:41:20.221Z,95977.55
2018-03-19T22:43:49.215Z,95974.61
2018-03-19T22:46:15.107Z,95978.09
2018-03-19T22:48:43.026Z,95973.18
2018-03-19T22:51:08.943Z,95972.72
2018-03-19T22:53:38.860Z,95971.91
2018-03-19T22:56:04.734Z,95970.75
2018-03-19T22:58:33.691Z,95969.47
2018-03-19T23:00:59.617Z,95976.48
2018-03-19T23:03:25.533Z,95966.41
2018-03-19T23:05:51.434Z,95969.08
2018-03-19T23:08:17.322Z,95972.14
2018-03-19T23:10:43.858Z,95976.98
2018-03-19T23:13:09.743Z,95978.19
2018-03-19T23:15:39.633Z,95982.41
2018-03-19T23:18:09.295Z,95979.50
2018-03-19T23:20:35.366Z,95978.21
2018-03-19T23:23:01.314Z,95976.12
2018-03-19T23:25:28.084Z,95986.42
2018-03-19T23:27:54.002Z,95979.17
2018-03-19T23:30:22.282Z,95975.73
2018-03-19T23:32:48.174Z,95980.30
2018-03-19T23:35:17.189Z,95982.52
2018-03-19T23:37:43.121Z,95981.45
2018-03-19T23:40:09.030Z,95971.55
2018-03-19T23:42:34.923Z,95981.98
2018-03-19T23:45:00.846Z,95975.89
2018-03-19T23:47:30.232Z,95977.28
2018-03-19T23:49:57.032Z,95984.41
2018-03-19T23:52:24.422Z,95980.19
2018-03-19T23:54:50.333Z,95983.06
2018-03-19T23:57:20.267Z,95984.06
2018-03-19T23:59:46.168Z,95988.17
